Time;durP1;ratioP1;P1;durP2;ratioP2;P2;SDS_P1;SDS_P2;PMS_P1;PMS_P2;Temp;Humidity;BMP_temperature;BMP_pressure;BME280_temperature;BME280_humidity;BME280_pressure;Samples;Min_cycle;Max_cycle;Signal;HPM_P1;HPM_P2
2021/12/19 00:02:27;;;;;;;30.58;14.13;;;3.90;99.90;;;;;;5034827;28;20573;-79
2021/12/19 00:10:23;;;;;;;30.88;14.80;;;3.80;99.90;;;;;;5019543;28;20279;-78
2021/12/19 00:12:52;;;;;;;26.20;12.98;;;3.80;99.90;;;;;;5018833;28;20216;-85
2021/12/19 00:15:21;;;;;;;32.42;14.40;;;3.80;99.90;;;;;;5019283;28;20239;-79
2021/12/19 00:17:48;;;;;;;28.90;13.98;;;3.70;99.90;;;;;;5018866;28;20193;-80
2021/12/19 00:20:16;;;;;;;31.48;14.27;;;3.80;99.90;;;;;;5025064;28;20208;-80
2021/12/19 00:22:43;;;;;;;36.78;14.38;;;3.90;99.90;;;;;;5030775;28;20215;-81
2021/12/19 00:25:10;;;;;;;32.58;15.25;;;3.90;99.90;;;;;;5029778;28;20232;-82
2021/12/19 00:27:37;;;;;;;26.25;13.48;;;4.00;99.90;;;;;;5030700;28;20572;-80
2021/12/19 00:30:05;;;;;;;23.85;13.77;;;3.90;99.90;;;;;;5023886;28;20209;-82
2021/12/19 00:32:34;;;;;;;23.40;12.85;;;3.80;99.90;;;;;;5011454;28;20260;-81
2021/12/19 00:35:02;;;;;;;33.88;13.23;;;3.90;99.90;;;;;;5011488;28;20232;-81
2021/12/19 00:37:33;;;;;;;34.13;14.65;;;3.70;99.90;;;;;;5014212;28;20220;-82
2021/12/19 00:40:00;;;;;;;26.83;13.35;;;3.70;99.90;;;;;;5028021;28;20301;-81
2021/12/19 00:42:29;;;;;;;32.90;14.57;;;3.80;99.90;;;;;;5027377;28;20238;-82
2021/12/19 00:44:58;;;;;;;25.65;13.27;;;3.80;99.90;;;;;;5027975;28;20232;-80
2021/12/19 00:47:24;;;;;;;30.42;13.57;;;3.60;99.90;;;;;;5023745;28;20216;-81
2021/12/19 00:49:53;;;;;;;29.35;14.52;;;3.70;99.90;;;;;;5007478;28;20213;-82
2021/12/19 00:52:20;;;;;;;31.30;14.68;;;3.70;99.90;;;;;;5007195;28;20213;-83
2021/12/19 00:54:47;;;;;;;30.55;14.20;;;3.80;99.90;;;;;;5009999;28;20221;-80
2021/12/19 00:57:14;;;;;;;30.70;15.52;;;3.80;99.90;;;;;;5011598;28;20296;-80
2021/12/19 00:59:41;;;;;;;28.17;13.25;;;3.80;99.90;;;;;;5010118;28;20239;-80
2021/12/19 01:02:08;;;;;;;28.25;13.30;;;3.80;99.90;;;;;;5009575;28;20205;-81
2021/12/19 01:04:35;;;;;;;29.95;13.75;;;3.80;99.90;;;;;;5008812;28;20224;-80
2021/12/19 01:07:04;;;;;;;26.92;13.57;;;3.80;99.90;;;;;;5019754;28;20200;-82
2021/12/19 01:09:31;;;;;;;29.80;14.05;;;3.80;99.90;;;;;;5027123;28;20219;-80
2021/12/19 01:11:58;;;;;;;28.38;13.35;;;3.80;99.90;;;;;;5013502;28;20208;-83
2021/12/19 01:14:25;;;;;;;31.33;13.38;;;3.70;99.90;;;;;;5009621;28;20314;-81
2021/12/19 01:16:53;;;;;;;23.73;13.02;;;3.70;99.90;;;;;;5011090;28;20239;-82
2021/12/19 01:19:20;;;;;;;31.10;11.90;;;3.80;99.90;;;;;;5006934;28;20675;-81
2021/12/19 01:21:52;;;;;;;25.33;12.27;;;3.80;99.90;;;;;;5020230;28;20211;-80
2021/12/19 01:24:20;;;;;;;24.27;12.43;;;3.80;99.90;;;;;;5027817;28;20279;-81
2021/12/19 01:26:48;;;;;;;21.70;10.93;;;3.90;99.90;;;;;;5017903;28;20200;-81
2021/12/19 01:29:15;;;;;;;25.33;12.05;;;3.90;99.90;;;;;;5006612;28;20556;-82
2021/12/19 01:31:43;;;;;;;26.50;11.55;;;3.90;99.90;;;;;;5015351;28;20207;-79
2021/12/19 05:46:23;;;;;;;7.22;4.50;;;4.10;93.70;;;;;;5030194;28;20264;-80
2021/12/19 05:48:50;;;;;;;7.05;4.45;;;4.10;93.50;;;;;;5034079;28;20279;-81
2021/12/19 05:51:17;;;;;;;8.70;5.32;;;4.10;93.70;;;;;;5050545;28;20237;-81
2021/12/19 05:53:44;;;;;;;10.02;5.20;;;4.10;93.70;;;;;;5031273;28;20327;-81
2021/12/19 05:56:12;;;;;;;8.80;4.43;;;4.10;93.50;;;;;;5002430;28;20236;-80
2021/12/19 05:58:39;;;;;;;8.38;4.20;;;4.10;93.80;;;;;;5005541;28;20214;-81
2021/12/19 06:01:06;;;;;;;8.18;4.88;;;4.10;93.70;;;;;;5018529;28;20232;-80
2021/12/19 06:03:33;;;;;;;8.30;4.93;;;4.10;93.50;;;;;;5023441;28;20262;-81
2021/12/19 06:06:00;;;;;;;6.95;4.32;;;4.10;93.50;;;;;;5029146;28;20207;-80
2021/12/19 06:08:27;;;;;;;9.15;5.75;;;4.10;93.60;;;;;;5031014;28;20203;-80
2021/12/19 06:10:54;;;;;;;9.23;5.85;;;4.00;93.50;;;;;;5035902;28;20183;-81
2021/12/19 06:13:22;;;;;;;8.77;5.68;;;4.00;94.30;;;;;;5036171;28;20211;-81
2021/12/19 06:15:53;;;;;;;9.55;6.10;;;4.00;94.80;;;;;;5015567;28;20231;-80
2021/12/19 06:18:20;;;;;;;12.90;6.70;;;4.00;94.80;;;;;;5014384;28;20236;-80
2021/12/19 06:20:47;;;;;;;12.45;7.65;;;4.00;95.40;;;;;;5011040;28;20208;-81
2021/12/19 06:23:14;;;;;;;15.63;9.07;;;3.90;96.00;;;;;;5011909;28;20212;-81
2021/12/19 06:25:45;;;;;;;18.40;10.00;;;4.00;96.50;;;;;;5011457;28;20216;-81
2021/12/19 06:28:12;;;;;;;23.77;11.80;;;4.00;96.50;;;;;;5010997;28;20192;-81
2021/12/19 06:30:41;;;;;;;26.45;12.45;;;3.90;96.30;;;;;;5026740;28;20214;-81
2021/12/19 06:33:08;;;;;;;23.40;12.15;;;3.90;96.80;;;;;;5031814;28;20232;-81
2021/12/19 06:35:35;;;;;;;22.83;12.50;;;3.90;97.40;;;;;;5027477;28;20231;-81
2021/12/19 06:38:02;;;;;;;23.58;13.05;;;3.90;97.50;;;;;;5030663;28;20224;-81
2021/12/19 06:40:29;;;;;;;22.63;12.98;;;3.80;98.20;;;;;;5015895;28;20228;-81
2021/12/19 06:42:57;;;;;;;26.33;13.00;;;3.80;98.20;;;;;;5016075;28;20267;-80
2021/12/19 06:45:24;;;;;;;22.23;11.70;;;3.80;98.30;;;;;;5033391;28;20207;-81
2021/12/19 06:47:52;;;;;;;23.02;13.23;;;3.70;99.10;;;;;;5027879;28;20268;-80
2021/12/19 06:50:20;;;;;;;22.73;12.48;;;3.70;99.60;;;;;;5012144;28;20259;-80
2021/12/19 06:52:48;;;;;;;21.88;12.70;;;3.70;99.90;;;;;;5007121;28;20228;-81
2021/12/19 06:55:16;;;;;;;21.05;12.02;;;3.70;99.90;;;;;;5003244;28;20256;-81
2021/12/19 06:57:46;;;;;;;20.55;12.43;;;3.70;99.90;;;;;;5005668;28;20217;-82
2021/12/19 07:00:17;;;;;;;21.42;13.55;;;3.70;99.90;;;;;;5004448;28;20204;-81
2021/12/19 07:02:44;;;;;;;23.52;12.65;;;3.70;99.90;;;;;;5006536;28;20291;-82
2021/12/19 07:05:12;;;;;;;24.33;12.43;;;3.60;99.90;;;;;;5008291;28;20212;-81
2021/12/19 07:07:40;;;;;;;21.35;12.13;;;3.60;99.90;;;;;;5023308;28;20220;-81
2021/12/19 07:10:08;;;;;;;23.80;12.77;;;3.60;99.90;;;;;;5021490;28;20208;-81
2021/12/19 07:12:35;;;;;;;29.05;13.02;;;3.70;99.90;;;;;;5003753;28;20263;-81
2021/12/19 07:15:04;;;;;;;23.55;13.88;;;3.70;99.90;;;;;;5004098;28;20319;-82
2021/12/19 07:17:32;;;;;;;26.63;12.73;;;3.70;99.90;;;;;;5006799;28;20228;-79
2021/12/19 07:19:59;;;;;;;20.00;12.05;;;3.70;99.90;;;;;;5009299;28;20232;-81
2021/12/19 07:22:27;;;;;;;21.60;12.40;;;3.70;99.90;;;;;;5004536;28;20204;-81
2021/12/19 07:24:54;;;;;;;20.58;11.45;;;3.70;99.90;;;;;;5007840;28;20240;-81
2021/12/19 07:27:21;;;;;;;21.80;12.30;;;3.70;99.90;;;;;;5005096;28;20315;-82
2021/12/19 07:29:48;;;;;;;21.00;12.68;;;3.70;99.90;;;;;;5008578;28;20204;-81
2021/12/19 07:32:15;;;;;;;21.88;12.40;;;3.70;99.90;;;;;;5016162;28;20663;-80
2021/12/19 07:34:43;;;;;;;20.77;11.30;;;3.70;99.90;;;;;;5026332;28;20224;-81
2021/12/19 07:37:10;;;;;;;20.38;12.82;;;3.70;99.90;;;;;;5024856;28;20269;-81
2021/12/19 07:39:51;;;;;;;19.35;11.35;;;3.70;99.90;;;;;;5029700;28;20208;-82
2021/12/19 07:42:18;;;;;;;20.52;11.98;;;3.80;99.90;;;;;;5006816;28;20665;-82
2021/12/19 07:44:45;;;;;;;20.45;11.70;;;3.80;99.90;;;;;;5006568;28;20243;-81
2021/12/19 07:47:12;;;;;;;23.27;11.80;;;3.80;99.90;;;;;;5027558;28;20219;-81
2021/12/19 07:49:39;;;;;;;19.85;11.45;;;3.90;99.90;;;;;;5027917;28;20196;-81
2021/12/19 07:52:07;;;;;;;21.92;10.63;;;3.90;99.90;;;;;;5025355;28;20208;-81
2021/12/19 07:54:34;;;;;;;19.58;11.35;;;3.90;99.90;;;;;;5017872;28;20247;-81
2021/12/19 07:57:02;;;;;;;18.38;11.15;;;3.80;99.90;;;;;;5007817;28;20232;-81
2021/12/19 07:59:29;;;;;;;20.40;11.30;;;3.80;99.90;;;;;;5007760;28;20210;-81
2021/12/19 08:01:57;;;;;;;18.77;11.35;;;3.90;99.90;;;;;;5026262;28;20246;-81
2021/12/19 08:04:24;;;;;;;17.17;11.57;;;3.90;99.90;;;;;;5023844;28;20248;-79
2021/12/19 08:06:51;;;;;;;18.80;11.73;;;3.90;99.90;;;;;;5008152;28;20247;-80
2021/12/19 08:09:25;;;;;;;22.02;11.20;;;3.90;99.90;;;;;;5001946;28;20287;-82
2021/12/19 08:11:51;;;;;;;16.50;10.60;;;3.80;99.90;;;;;;5003060;28;20576;-81
2021/12/19 08:14:19;;;;;;;17.42;10.48;;;3.80;99.90;;;;;;5008173;28;20317;-80
2021/12/19 08:16:47;;;;;;;20.15;10.25;;;3.80;99.90;;;;;;5005315;28;20211;-80
2021/12/19 08:19:15;;;;;;;18.90;10.10;;;3.90;99.90;;;;;;5005280;28;20275;-79
2021/12/19 08:21:42;;;;;;;20.83;12.20;;;3.90;99.90;;;;;;5022625;28;20266;-80
2021/12/19 08:24:13;;;;;;;17.75;9.95;;;3.90;99.90;;;;;;5024359;28;20220;-80
2021/12/19 08:26:41;;;;;;;19.35;10.52;;;3.90;99.90;;;;;;5016973;28;20192;-86
2021/12/19 08:29:08;;;;;;;17.75;9.60;;;3.90;99.90;;;;;;5033010;28;20196;-82
2021/12/19 08:31:36;;;;;;;20.23;10.30;;;3.90;99.90;;;;;;5036016;28;20231;-82
2021/12/19 08:34:03;;;;;;;18.70;9.43;;;4.00;99.90;;;;;;5022443;28;20300;-82
2021/12/19 08:36:30;;;;;;;15.90;9.07;;;4.00;99.90;;;;;;5020280;28;20201;-81
2021/12/19 08:38:58;;;;;;;13.50;9.63;;;4.00;99.90;;;;;;5018718;28;20228;-82
2021/12/19 08:41:25;;;;;;;19.45;9.05;;;4.00;99.90;;;;;;5026137;28;20287;-82
2021/12/19 08:43:52;;;;;;;15.20;9.35;;;4.00;99.90;;;;;;5024453;28;20376;-83
2021/12/19 08:46:19;;;;;;;18.23;9.90;;;4.00;99.90;;;;;;5025063;28;20199;-84
2021/12/19 08:48:47;;;;;;;14.80;8.73;;;3.90;99.90;;;;;;5017640;28;20192;-83
2021/12/19 08:51:14;;;;;;;17.83;8.57;;;3.90;99.90;;;;;;5025388;28;20189;-82
2021/12/19 08:53:44;;;;;;;15.77;9.75;;;3.90;99.90;;;;;;5036342;28;20259;-82
2021/12/19 08:56:11;;;;;;;12.93;8.13;;;3.80;99.90;;;;;;5032721;28;20222;-80
2021/12/19 08:58:38;;;;;;;12.52;8.25;;;3.90;99.90;;;;;;5021717;28;20229;-81
2021/12/19 09:01:05;;;;;;;12.43;7.93;;;3.90;99.90;;;;;;5021505;28;20208;-81
2021/12/19 09:03:33;;;;;;;14.35;8.35;;;3.90;99.90;;;;;;5022237;28;20291;-83
2021/12/19 09:06:03;;;;;;;12.90;7.93;;;4.00;99.90;;;;;;5031017;28;20204;-82
2021/12/19 09:08:30;;;;;;;11.88;7.28;;;4.00;99.90;;;;;;5034549;28;20273;-82
2021/12/19 09:10:58;;;;;;;11.23;7.53;;;4.00;99.90;;;;;;5012657;28;20212;-81
2021/12/19 09:13:25;;;;;;;13.98;8.45;;;3.90;99.90;;;;;;5022557;28;20238;-81
2021/12/19 09:15:53;;;;;;;13.10;8.27;;;3.90;99.90;;;;;;5011503;28;20279;-80
2021/12/19 09:18:20;;;;;;;13.23;8.75;;;3.90;99.90;;;;;;5023848;28;20255;-81
2021/12/19 09:20:48;;;;;;;13.32;8.00;;;4.00;99.90;;;;;;5017865;28;20258;-83
2021/12/19 09:23:16;;;;;;;12.55;7.63;;;4.00;99.90;;;;;;5020595;28;20228;-81
2021/12/19 09:25:44;;;;;;;14.50;8.27;;;4.00;99.90;;;;;;5013845;28;20201;-82
2021/12/19 09:28:10;;;;;;;14.35;8.05;;;4.00;99.90;;;;;;5011247;28;20201;-82
2021/12/19 09:30:38;;;;;;;14.48;8.50;;;4.00;99.90;;;;;;5012624;28;20208;-81
2021/12/19 09:33:05;;;;;;;11.30;7.38;;;3.90;99.40;;;;;;5016297;28;20258;-80
2021/12/19 09:35:32;;;;;;;12.40;8.00;;;4.00;99.80;;;;;;5027887;28;20208;-81
2021/12/19 09:37:59;;;;;;;12.35;7.80;;;4.00;99.90;;;;;;5024004;28;20236;-83
2021/12/19 09:40:33;;;;;;;16.30;8.25;;;4.10;99.90;;;;;;5016440;28;20212;-82
2021/12/19 09:43:04;;;;;;;9.25;6.80;;;4.10;99.50;;;;;;5015714;28;20207;-81
2021/12/19 09:45:32;;;;;;;11.57;6.72;;;4.10;98.70;;;;;;5021387;28;20222;-82
2021/12/19 09:48:00;;;;;;;10.63;6.65;;;4.00;98.00;;;;;;5020556;28;20636;-82
2021/12/19 09:50:28;;;;;;;9.48;6.57;;;3.90;97.90;;;;;;5021507;28;20670;-82
2021/12/19 09:52:55;;;;;;;12.25;7.57;;;4.00;98.30;;;;;;5009617;28;20208;-84
2021/12/19 09:55:22;;;;;;;11.10;6.38;;;3.90;98.20;;;;;;5024272;28;20207;-81
2021/12/19 09:57:53;;;;;;;10.18;6.70;;;3.90;97.80;;;;;;5024472;28;20223;-84
2021/12/19 10:00:20;;;;;;;8.82;6.43;;;3.80;98.20;;;;;;5017318;28;20234;-82
2021/12/19 10:02:47;;;;;;;11.65;6.90;;;3.80;99.10;;;;;;5024270;28;20208;-81
2021/12/19 10:05:20;;;;;;;11.07;6.90;;;3.90;99.90;;;;;;5017739;28;20215;-82
2021/12/19 10:07:50;;;;;;;9.88;6.70;;;3.90;99.90;;;;;;5018582;28;20303;-80
2021/12/19 10:10:26;;;;;;;11.50;7.20;;;4.00;99.90;;;;;;5000413;28;20247;-82
2021/12/19 10:12:57;;;;;;;10.15;6.97;;;4.00;99.90;;;;;;5002523;28;20304;-82
2021/12/19 10:15:31;;;;;;;11.02;6.70;;;4.00;99.30;;;;;;5023713;28;20227;-81
2021/12/19 10:18:09;;;;;;;12.82;7.40;;;4.00;98.60;;;;;;5028224;28;20331;-80
2021/12/19 10:20:46;;;;;;;12.50;7.07;;;4.00;99.00;;;;;;5003502;28;20208;-79
2021/12/19 10:23:15;;;;;;;13.45;6.85;;;4.00;98.90;;;;;;5003011;28;20224;-81
2021/12/19 10:25:44;;;;;;;13.57;8.23;;;4.00;98.70;;;;;;5001316;28;20640;-81
2021/12/19 10:28:12;;;;;;;11.90;7.72;;;3.90;98.40;;;;;;5007933;28;20264;-82
2021/12/19 10:30:43;;;;;;;11.82;7.70;;;4.00;98.50;;;;;;5003416;28;20292;-82
2021/12/19 10:33:12;;;;;;;14.35;7.65;;;4.00;98.50;;;;;;5025479;28;20227;-84
2021/12/19 10:35:40;;;;;;;12.23;8.25;;;4.00;98.30;;;;;;5029141;28;20235;-84
2021/12/19 10:38:13;;;;;;;13.35;8.50;;;4.00;98.30;;;;;;5016172;28;20219;-82
2021/12/19 10:40:48;;;;;;;12.25;7.65;;;3.90;98.10;;;;;;5020066;28;20244;-79
2021/12/19 10:43:21;;;;;;;11.10;7.72;;;3.90;98.40;;;;;;5019482;28;20283;-79
2021/12/19 10:45:55;;;;;;;13.50;7.75;;;4.10;99.00;;;;;;5019255;28;20224;-82
2021/12/19 10:48:30;;;;;;;11.98;7.90;;;4.10;98.60;;;;;;5022764;28;20207;-83
2021/12/19 10:51:01;;;;;;;13.90;8.07;;;4.10;98.30;;;;;;5029501;28;20234;-82
2021/12/19 10:53:31;;;;;;;10.10;7.28;;;4.10;98.30;;;;;;5024426;28;20223;-82
2021/12/19 10:55:59;;;;;;;10.65;8.00;;;4.10;98.00;;;;;;5026031;28;20203;-83
2021/12/19 10:58:35;;;;;;;14.13;8.43;;;4.10;97.30;;;;;;5010476;28;20303;-83
2021/12/19 11:01:12;;;;;;;10.80;7.75;;;4.10;97.50;;;;;;5011403;28;20222;-84
2021/12/19 11:03:55;;;;;;;11.27;7.80;;;4.10;96.70;;;;;;5031458;28;20225;-83
2021/12/19 11:06:43;;;;;;;13.40;7.97;;;4.10;97.00;;;;;;5031331;28;20196;-83
2021/12/19 11:09:15;;;;;;;10.65;7.03;;;4.10;96.70;;;;;;5032972;28;20204;-83
2021/12/19 11:11:53;;;;;;;13.38;8.52;;;4.10;96.50;;;;;;5031976;28;20219;-83
2021/12/19 11:14:28;;;;;;;12.20;7.57;;;4.10;96.40;;;;;;5029935;28;20246;-83
2021/12/19 11:16:58;;;;;;;11.52;7.85;;;4.20;96.60;;;;;;5030050;28;20203;-82
2021/12/19 11:19:26;;;;;;;13.75;8.95;;;4.20;96.60;;;;;;5026147;28;20266;-83
2021/12/19 11:21:53;;;;;;;14.43;8.45;;;4.10;96.30;;;;;;5026927;28;20269;-83
2021/12/19 11:24:23;;;;;;;13.32;8.32;;;4.10;96.60;;;;;;5028431;28;20228;-82
2021/12/19 11:26:52;;;;;;;15.45;8.48;;;4.20;96.60;;;;;;5038612;28;20244;-77
2021/12/19 11:29:20;;;;;;;13.48;8.82;;;4.20;96.70;;;;;;5036273;28;20262;-80
2021/12/19 11:31:57;;;;;;;14.18;9.40;;;4.20;96.60;;;;;;5035724;28;20204;-81
2021/12/19 11:34:32;;;;;;;15.00;8.60;;;4.10;96.20;;;;;;5014976;28;20236;-83
2021/12/19 11:37:03;;;;;;;14.98;9.10;;;4.00;96.50;;;;;;5019590;28;20212;-84
2021/12/19 11:39:33;;;;;;;14.52;8.38;;;4.10;96.70;;;;;;5015271;28;20247;-83
2021/12/19 11:42:07;;;;;;;11.85;7.90;;;4.20;97.10;;;;;;5009556;28;20235;-83
2021/12/19 11:44:39;;;;;;;13.82;8.88;;;4.20;96.60;;;;;;5057843;23;20227;-79
2021/12/19 11:47:14;;;;;;;15.18;9.13;;;4.20;96.30;;;;;;5054260;28;20207;-79
2021/12/19 11:49:40;;;;;;;15.20;8.77;;;4.20;95.70;;;;;;5050709;28;20232;-79
2021/12/19 11:52:28;;;;;;;15.60;9.95;;;4.20;95.90;;;;;;5055721;28;20207;-81
2021/12/19 11:55:29;;;;;;;13.82;9.65;;;4.20;95.70;;;;;;5040294;28;20227;-81
2021/12/19 11:58:22;;;;;;;15.05;8.85;;;4.20;95.60;;;;;;5036101;28;20273;-83
2021/12/19 12:01:03;;;;;;;13.60;8.90;;;4.30;95.70;;;;;;5033412;28;20222;-82
2021/12/19 12:03:42;;;;;;;14.25;8.85;;;4.30;95.60;;;;;;5034053;28;20239;-83
2021/12/19 12:06:37;;;;;;;17.15;9.57;;;4.30;94.90;;;;;;5013912;28;20196;-79
2021/12/19 12:09:28;;;;;;;14.07;8.55;;;4.40;94.90;;;;;;4980235;28;20271;-79
2021/12/19 12:12:32;;;;;;;11.60;7.60;;;4.40;94.70;;;;;;5024188;28;20208;-80
2021/12/19 12:15:07;;;;;;;12.77;8.05;;;4.50;94.40;;;;;;5022843;28;20241;-77
2021/12/19 12:17:40;;;;;;;12.98;9.43;;;4.50;93.80;;;;;;5007642;28;20735;-80
2021/12/19 12:20:21;;;;;;;13.07;8.60;;;4.50;93.40;;;;;;5003862;28;20274;-80
2021/12/19 12:22:53;;;;;;;11.90;8.50;;;4.60;93.30;;;;;;4997782;28;20212;-78
2021/12/19 12:25:30;;;;;;;15.40;8.35;;;4.60;92.70;;;;;;5010335;28;20231;-81
2021/12/19 12:28:03;;;;;;;12.05;8.00;;;4.60;92.70;;;;;;5018976;28;20208;-81
2021/12/19 12:30:33;;;;;;;14.20;8.07;;;4.60;92.30;;;;;;5001159;28;20204;-79
2021/12/19 12:33:02;;;;;;;13.45;7.75;;;4.50;91.40;;;;;;5014544;28;20342;-81
2021/12/19 12:35:32;;;;;;;12.98;8.15;;;4.50;91.60;;;;;;5015105;28;20228;-79
2021/12/19 12:38:00;;;;;;;11.38;8.30;;;4.50;91.80;;;;;;5017522;28;20208;-80
2021/12/19 12:40:31;;;;;;;14.85;8.55;;;4.40;91.50;;;;;;5016658;28;20315;-79
2021/12/19 12:43:08;;;;;;;13.30;8.25;;;4.40;91.60;;;;;;5008475;28;20272;-79
2021/12/19 12:45:57;;;;;;;12.57;8.02;;;4.40;91.70;;;;;;5019529;28;20647;-80
2021/12/19 12:48:32;;;;;;;13.40;8.48;;;4.50;92.20;;;;;;5018852;28;20726;-81
2021/12/19 12:51:03;;;;;;;12.35;7.85;;;4.50;92.20;;;;;;5008512;28;20234;-79
2021/12/19 12:53:33;;;;;;;11.27;7.00;;;4.60;91.70;;;;;;5009694;28;20311;-78
2021/12/19 12:56:01;;;;;;;14.10;7.65;;;4.50;91.40;;;;;;5013462;28;20295;-80
2021/12/19 12:58:34;;;;;;;10.45;7.18;;;4.50;91.50;;;;;;5017735;28;20296;-78
2021/12/19 13:01:23;;;;;;;11.75;8.18;;;4.50;91.40;;;;;;5014098;28;20200;-79
2021/12/19 13:04:15;;;;;;;11.57;7.63;;;4.50;91.40;;;;;;5005595;28;20231;-78
2021/12/19 13:06:55;;;;;;;13.65;8.20;;;4.40;91.50;;;;;;5007384;28;20203;-79
2021/12/19 13:09:26;;;;;;;13.20;8.65;;;4.50;91.40;;;;;;5016672;28;20207;-78
2021/12/19 13:12:00;;;;;;;11.65;7.60;;;4.40;91.40;;;;;;5007983;28;20223;-79
2021/12/19 13:14:29;;;;;;;16.27;8.93;;;4.30;91.30;;;;;;5021443;28;20234;-81
2021/12/19 13:16:58;;;;;;;13.45;8.90;;;4.40;91.60;;;;;;5021255;28;20239;-78
2021/12/19 13:19:56;;;;;;;12.60;8.50;;;4.50;91.70;;;;;;5020941;28;20318;-81
2021/12/19 13:22:27;;;;;;;11.05;6.15;;;4.40;91.40;;;;;;5022241;28;20216;-77
2021/12/19 13:24:56;;;;;;;9.88;6.45;;;4.30;91.30;;;;;;5009841;28;20224;-79
2021/12/19 13:27:25;;;;;;;12.38;8.20;;;4.20;91.30;;;;;;4998309;28;20280;-78
2021/12/19 13:30:15;;;;;;;13.60;8.18;;;4.20;91.30;;;;;;5002299;28;20266;-80
2021/12/19 13:32:43;;;;;;;15.00;8.57;;;4.30;91.60;;;;;;5015471;28;20227;-81
2021/12/19 13:35:17;;;;;;;14.75;8.75;;;4.20;92.30;;;;;;5009841;28;20228;-80
2021/12/19 13:37:55;;;;;;;14.05;8.25;;;4.20;92.10;;;;;;4997601;28;20299;-79
2021/12/19 13:40:24;;;;;;;14.80;9.68;;;4.30;92.80;;;;;;4998438;28;20228;-80
2021/12/19 13:42:54;;;;;;;15.57;9.13;;;4.20;92.20;;;;;;5002441;28;20232;-80
2021/12/19 13:45:26;;;;;;;13.25;9.00;;;4.20;92.30;;;;;;4997631;28;20353;-80
2021/12/19 13:47:55;;;;;;;15.63;9.23;;;4.20;92.80;;;;;;4995143;28;20679;-80
2021/12/19 13:50:23;;;;;;;13.60;8.52;;;4.20;93.00;;;;;;5006050;28;20196;-78
2021/12/19 13:52:50;;;;;;;14.50;9.15;;;4.20;93.10;;;;;;5011843;28;20679;-79
2021/12/19 13:55:18;;;;;;;14.90;8.98;;;4.20;93.30;;;;;;4998238;28;20258;-80
2021/12/19 13:57:46;;;;;;;14.95;8.52;;;4.20;93.20;;;;;;4996986;28;20728;-78
2021/12/19 14:00:30;;;;;;;14.73;8.60;;;4.20;93.10;;;;;;5004093;28;20311;-78
2021/12/19 14:02:57;;;;;;;15.10;8.98;;;4.20;93.10;;;;;;5007865;28;20208;-79
2021/12/19 14:05:32;;;;;;;13.95;9.30;;;4.20;92.90;;;;;;4997038;28;20263;-78
2021/12/19 14:07:59;;;;;;;14.40;8.43;;;4.00;92.90;;;;;;5030529;28;20267;-78
2021/12/19 14:10:28;;;;;;;15.70;8.15;;;3.90;93.00;;;;;;5029667;28;20235;-81
2021/12/19 14:13:06;;;;;;;14.20;9.10;;;3.90;93.60;;;;;;5015360;28;20604;-80
2021/12/19 14:15:34;;;;;;;10.95;7.47;;;3.90;94.10;;;;;;5015024;28;20298;-78
2021/12/19 14:18:16;;;;;;;16.15;9.40;;;3.90;94.00;;;;;;4996875;28;20208;-79
2021/12/19 14:20:43;;;;;;;14.82;9.43;;;3.80;94.20;;;;;;5001964;28;20306;-78
2021/12/19 14:23:17;;;;;;;11.68;7.78;;;3.80;94.70;;;;;;5016123;28;20298;-81
2021/12/19 14:25:45;;;;;;;12.23;8.10;;;3.80;94.70;;;;;;4996427;28;20223;-80
2021/12/19 14:28:18;;;;;;;11.13;7.55;;;3.90;94.80;;;;;;4996272;28;20263;-80
2021/12/19 14:31:00;;;;;;;10.43;6.85;;;3.90;94.80;;;;;;4997727;28;20208;-78
2021/12/19 14:33:32;;;;;;;9.18;6.68;;;3.80;93.80;;;;;;4996899;28;20228;-80
2021/12/19 14:35:59;;;;;;;10.85;7.03;;;3.80;93.90;;;;;;4997277;28;20247;-81
2021/12/19 14:38:26;;;;;;;12.68;7.60;;;3.70;93.30;;;;;;4998454;28;20228;-80
2021/12/19 14:41:01;;;;;;;13.57;7.93;;;3.70;93.20;;;;;;4998574;28;20319;-80
2021/12/19 14:43:33;;;;;;;9.77;6.20;;;3.70;93.30;;;;;;5000818;28;20235;-79
2021/12/19 14:46:02;;;;;;;9.70;6.32;;;3.70;93.50;;;;;;5001372;28;20212;-79
2021/12/19 14:48:34;;;;;;;10.40;6.70;;;3.70;93.60;;;;;;5002768;28;20208;-82
2021/12/19 14:51:03;;;;;;;11.60;7.20;;;3.80;94.00;;;;;;5001760;28;20216;-81
2021/12/19 14:53:31;;;;;;;11.32;7.55;;;3.80;93.80;;;;;;4998747;28;20243;-81
2021/12/19 14:56:02;;;;;;;14.52;9.13;;;3.80;94.20;;;;;;4997187;28;20295;-79
2021/12/19 14:58:32;;;;;;;13.90;8.75;;;3.80;94.90;;;;;;4997231;28;20702;-78
2021/12/19 15:01:01;;;;;;;11.57;7.50;;;3.80;94.70;;;;;;4998511;28;20243;-83
2021/12/19 15:03:30;;;;;;;14.20;9.32;;;3.90;94.70;;;;;;5002395;28;20578;-81
2021/12/19 15:05:57;;;;;;;12.02;7.53;;;3.90;94.40;;;;;;5002167;28;20239;-80
2021/12/19 15:08:27;;;;;;;14.27;8.20;;;3.90;94.00;;;;;;4997364;28;20209;-79
2021/12/19 15:10:55;;;;;;;14.55;8.95;;;3.90;94.10;;;;;;5003240;28;20205;-80
2021/12/19 15:13:24;;;;;;;15.23;8.93;;;3.90;94.40;;;;;;5003382;28;20208;-82
2021/12/19 15:15:51;;;;;;;16.23;9.18;;;3.90;94.70;;;;;;5007440;28;20204;-80
2021/12/19 15:18:18;;;;;;;16.20;10.90;;;3.90;95.30;;;;;;5017839;28;20492;-80
2021/12/19 15:20:45;;;;;;;20.48;10.40;;;3.80;95.20;;;;;;5021474;28;20234;-79
2021/12/19 15:23:13;;;;;;;17.15;9.75;;;3.80;95.90;;;;;;5010756;28;20227;-80
2021/12/19 15:25:41;;;;;;;19.75;10.40;;;3.70;96.30;;;;;;5007838;28;20211;-79
2021/12/19 15:28:08;;;;;;;20.40;11.38;;;3.70;96.60;;;;;;5022706;28;20235;-79
2021/12/19 15:30:37;;;;;;;22.25;11.32;;;3.60;96.90;;;;;;5010244;28;20196;-78
2021/12/19 15:33:04;;;;;;;19.67;10.30;;;3.70;97.40;;;;;;5013288;28;20207;-79
2021/12/19 15:35:31;;;;;;;19.15;11.10;;;3.60;97.30;;;;;;5012378;28;20739;-79
2021/12/19 15:37:58;;;;;;;20.77;12.07;;;3.60;98.00;;;;;;5016496;28;20204;-80
2021/12/19 15:40:25;;;;;;;18.10;12.23;;;3.50;98.10;;;;;;5003450;28;20247;-79
2021/12/19 15:42:53;;;;;;;21.85;11.10;;;3.50;99.00;;;;;;5017084;28;20307;-79
2021/12/19 15:45:20;;;;;;;18.75;11.00;;;3.50;99.70;;;;;;5017804;28;20236;-80
2021/12/19 15:47:48;;;;;;;16.90;10.43;;;3.60;99.60;;;;;;5018962;28;20294;-79
2021/12/19 15:50:15;;;;;;;22.58;11.52;;;3.50;99.80;;;;;;5017852;28;20322;-77
2021/12/19 15:52:42;;;;;;;23.83;11.23;;;3.60;99.80;;;;;;5011825;28;20208;-80
2021/12/19 15:55:09;;;;;;;23.45;12.38;;;3.50;99.80;;;;;;5008756;28;20255;-78
2021/12/19 15:57:40;;;;;;;26.25;13.73;;;3.50;99.80;;;;;;5010241;28;20208;-81
2021/12/19 16:00:09;;;;;;;24.25;11.82;;;3.40;99.80;;;;;;5016929;28;20223;-78
2021/12/19 16:02:36;;;;;;;18.15;11.65;;;3.40;99.70;;;;;;5005141;28;20299;-78
2021/12/19 16:05:05;;;;;;;17.75;10.07;;;3.40;99.70;;;;;;5018867;28;20726;-80
2021/12/19 16:07:32;;;;;;;16.95;10.40;;;3.40;99.70;;;;;;5018948;28;20271;-79
2021/12/19 16:09:59;;;;;;;19.67;10.60;;;3.30;99.70;;;;;;5018593;28;20234;-79
2021/12/19 16:12:26;;;;;;;21.05;11.40;;;3.30;99.90;;;;;;5019938;28;20219;-81
2021/12/19 16:14:54;;;;;;;18.83;11.50;;;3.30;99.80;;;;;;5021376;28;20516;-81
2021/12/19 16:17:21;;;;;;;21.23;11.30;;;3.30;99.90;;;;;;5021305;28;20218;-80
2021/12/19 16:19:48;;;;;;;20.35;10.75;;;3.30;99.90;;;;;;5014477;28;20638;-79
2021/12/19 16:22:16;;;;;;;21.60;11.73;;;3.30;99.90;;;;;;5003400;28;20216;-78
2021/12/19 16:24:43;;;;;;;20.30;12.32;;;3.30;99.90;;;;;;5018078;28;20315;-78
2021/12/19 16:27:10;;;;;;;23.05;11.63;;;3.30;99.90;;;;;;5032362;28;20267;-79
2021/12/19 16:29:37;;;;;;;23.35;12.60;;;3.30;99.90;;;;;;5032638;28;20207;-80
2021/12/19 16:32:05;;;;;;;19.65;11.32;;;3.20;99.90;;;;;;5029950;28;20204;-79
2021/12/19 16:34:32;;;;;;;21.52;11.18;;;3.20;99.90;;;;;;5019704;28;20302;-79
2021/12/19 16:36:59;;;;;;;18.88;11.05;;;3.30;99.90;;;;;;5012153;28;20207;-81
2021/12/19 16:39:28;;;;;;;20.42;11.90;;;3.20;99.90;;;;;;5005049;28;20199;-79
2021/12/19 16:42:09;;;;;;;19.60;11.57;;;3.30;99.90;;;;;;5017181;28;20634;-81
2021/12/19 16:44:37;;;;;;;22.48;11.88;;;3.30;99.90;;;;;;5011106;28;20259;-81
2021/12/19 16:47:04;;;;;;;24.20;13.30;;;3.20;99.90;;;;;;5000530;28;20260;-80
2021/12/19 16:49:31;;;;;;;21.88;12.23;;;3.20;99.90;;;;;;5007515;28;20254;-81
2021/12/19 16:51:58;;;;;;;21.13;12.48;;;3.20;99.90;;;;;;5005746;28;20701;-79
2021/12/19 16:54:27;;;;;;;21.45;12.35;;;3.20;99.90;;;;;;5019103;28;20226;-80
2021/12/19 16:56:54;;;;;;;21.52;12.32;;;3.20;99.90;;;;;;5013864;28;20216;-78
2021/12/19 16:59:21;;;;;;;24.02;12.95;;;3.20;99.70;;;;;;5029092;28;20302;-78
2021/12/19 17:01:49;;;;;;;23.65;12.98;;;3.20;99.70;;;;;;5034071;28;20262;-78
2021/12/19 17:04:16;;;;;;;20.70;11.60;;;3.20;99.70;;;;;;5020302;28;20248;-77
2021/12/19 17:06:43;;;;;;;27.10;12.77;;;3.20;99.70;;;;;;5016730;28;20207;-79
2021/12/19 17:09:11;;;;;;;22.65;11.85;;;3.20;99.70;;;;;;5010522;28;20227;-79
2021/12/19 17:11:48;;;;;;;22.83;11.63;;;3.20;99.90;;;;;;5013720;28;20211;-78
2021/12/19 17:14:16;;;;;;;19.77;11.73;;;3.20;99.90;;;;;;5027788;28;20227;-78
2021/12/19 17:16:46;;;;;;;26.95;12.50;;;3.10;99.90;;;;;;5026767;28;20214;-77